sensor_id;sensor_type;location;lat;lon;timestamp;pressure;altitude;pressure_sealevel;temperature;humidity
55373;BME280;70018;47.838;16.490;2024-01-27T00:02:24;100249.75;;;6.18;62.19
55373;BME280;70018;47.838;16.490;2024-01-27T00:04:50;100234.53;;;6.25;60.17
55373;BME280;70018;47.838;16.490;2024-01-27T00:07:17;100257.44;;;6.16;61.56
55373;BME280;70018;47.838;16.490;2024-01-27T00:09:44;100255.84;;;6.15;61.75
55373;BME280;70018;47.838;16.490;2024-01-27T00:12:11;100273.31;;;6.05;62.64
55373;BME280;70018;47.838;16.490;2024-01-27T00:14:38;100263.00;;;6.02;61.85
55373;BME280;70018;47.838;16.490;2024-01-27T00:17:05;100267.47;;;5.98;62.53
55373;BME280;70018;47.838;16.490;2024-01-27T00:19:32;100271.66;;;5.96;62.19
55373;BME280;70018;47.838;16.490;2024-01-27T00:22:00;100259.91;;;5.95;61.33
55373;BME280;70018;47.838;16.490;2024-01-27T00:24:27;100255.75;;;5.98;62.25
55373;BME280;70018;47.838;16.490;2024-01-27T00:26:54;100263.75;;;5.94;61.75
55373;BME280;70018;47.838;16.490;2024-01-27T00:29:21;100269.69;;;5.96;61.82
55373;BME280;70018;47.838;16.490;2024-01-27T00:31:47;100261.13;;;5.89;62.49
55373;BME280;70018;47.838;16.490;2024-01-27T00:34:16;100273.97;;;5.89;61.26
55373;BME280;70018;47.838;16.490;2024-01-27T00:36:42;100275.41;;;5.86;60.28
55373;BME280;70018;47.838;16.490;2024-01-27T00:39:15;100281.16;;;5.98;60.10
55373;BME280;70018;47.838;16.490;2024-01-27T00:41:42;100295.22;;;5.92;61.02
55373;BME280;70018;47.838;16.490;2024-01-27T00:44:10;100298.50;;;5.80;62.31
55373;BME280;70018;47.838;16.490;2024-01-27T00:46:37;100307.09;;;5.73;62.19
55373;BME280;70018;47.838;16.490;2024-01-27T00:49:04;100333.94;;;5.71;62.11
55373;BME280;70018;47.838;16.490;2024-01-27T00:51:31;100325.81;;;5.80;62.07
55373;BME280;70018;47.838;16.490;2024-01-27T00:53:58;100331.22;;;5.85;62.37
55373;BME280;70018;47.838;16.490;2024-01-27T00:56:25;100328.03;;;5.92;61.66
55373;BME280;70018;47.838;16.490;2024-01-27T00:58:52;100328.66;;;5.89;61.59
55373;BME280;70018;47.838;16.490;2024-01-27T01:01:18;100325.00;;;5.79;62.22
55373;BME280;70018;47.838;16.490;2024-01-27T01:03:45;100325.66;;;5.63;63.29
55373;BME280;70018;47.838;16.490;2024-01-27T01:06:12;100337.31;;;5.55;63.99
55373;BME280;70018;47.838;16.490;2024-01-27T01:08:39;100326.09;;;5.43;64.47
55373;BME280;70018;47.838;16.490;2024-01-27T01:11:06;100323.75;;;5.36;65.50
55373;BME280;70018;47.838;16.490;2024-01-27T01:13:33;100320.34;;;5.31;65.23
55373;BME280;70018;47.838;16.490;2024-01-27T01:15:59;100321.94;;;5.32;65.34
55373;BME280;70018;47.838;16.490;2024-01-27T01:18:26;100326.28;;;5.46;63.65
55373;BME280;70018;47.838;16.490;2024-01-27T01:20:53;100333.59;;;5.37;64.55
55373;BME280;70018;47.838;16.490;2024-01-27T01:23:20;100340.97;;;5.37;64.50
55373;BME280;70018;47.838;16.490;2024-01-27T01:25:46;100343.91;;;5.27;64.58
55373;BME280;70018;47.838;16.490;2024-01-27T01:28:13;100352.09;;;5.27;64.56
55373;BME280;70018;47.838;16.490;2024-01-27T01:30:40;100365.16;;;5.43;64.29
55373;BME280;70018;47.838;16.490;2024-01-27T01:33:06;100361.13;;;5.41;64.47
55373;BME280;70018;47.838;16.490;2024-01-27T01:35:33;100369.00;;;5.42;64.23
55373;BME280;70018;47.838;16.490;2024-01-27T01:38:00;100374.78;;;5.41;65.14
55373;BME280;70018;47.838;16.490;2024-01-27T01:40:27;100368.28;;;5.37;65.67
55373;BME280;70018;47.838;16.490;2024-01-27T01:42:53;100355.13;;;5.39;65.18
55373;BME280;70018;47.838;16.490;2024-01-27T01:45:20;100370.09;;;5.41;65.26
55373;BME280;70018;47.838;16.490;2024-01-27T01:47:47;100381.03;;;5.28;65.99
55373;BME280;70018;47.838;16.490;2024-01-27T01:50:14;100374.34;;;5.34;65.48
55373;BME280;70018;47.838;16.490;2024-01-27T01:52:41;100368.19;;;5.28;65.45
55373;BME280;70018;47.838;16.490;2024-01-27T01:55:08;100381.13;;;5.36;66.02
55373;BME280;70018;47.838;16.490;2024-01-27T01:57:34;100372.03;;;5.27;66.18
55373;BME280;70018;47.838;16.490;2024-01-27T02:00:02;100365.25;;;5.25;66.63
55373;BME280;70018;47.838;16.490;2024-01-27T02:02:29;100377.81;;;5.26;66.74
55373;BME280;70018;47.838;16.490;2024-01-27T02:04:56;100381.72;;;5.19;66.84
55373;BME280;70018;47.838;16.490;2024-01-27T02:07:22;100389.41;;;5.17;66.96
55373;BME280;70018;47.838;16.490;2024-01-27T02:09:49;100399.75;;;5.20;66.82
55373;BME280;70018;47.838;16.490;2024-01-27T02:12:16;100412.06;;;5.18;66.73
55373;BME280;70018;47.838;16.490;2024-01-27T02:14:43;100395.28;;;5.11;66.69
55373;BME280;70018;47.838;16.490;2024-01-27T02:17:09;100402.56;;;5.15;66.88
55373;BME280;70018;47.838;16.490;2024-01-27T02:19:36;100405.91;;;5.12;66.53
55373;BME280;70018;47.838;16.490;2024-01-27T02:22:03;100397.09;;;5.15;66.87
55373;BME280;70018;47.838;16.490;2024-01-27T02:24:30;100398.03;;;5.11;66.92
55373;BME280;70018;47.838;16.490;2024-01-27T02:26:57;100380.59;;;5.07;66.61
55373;BME280;70018;47.838;16.490;2024-01-27T02:29:23;100397.28;;;5.05;66.68
55373;BME280;70018;47.838;16.490;2024-01-27T02:31:50;100409.81;;;5.06;66.00
55373;BME280;70018;47.838;16.490;2024-01-27T02:36:58;100407.63;;;5.08;66.30
55373;BME280;70018;47.838;16.490;2024-01-27T03:38:33;100506.59;;;4.82;64.74
55373;BME280;70018;47.838;16.490;2024-01-27T03:49:00;100506.31;;;4.83;64.42
55373;BME280;70018;47.838;16.490;2024-01-27T04:11:52;100548.50;;;4.91;62.76
55373;BME280;70018;47.838;16.490;2024-01-27T04:26:09;100538.75;;;4.85;61.41
55373;BME280;70018;47.838;16.490;2024-01-27T04:28:37;100534.69;;;4.82;62.03
55373;BME280;70018;47.838;16.490;2024-01-27T04:31:04;100530.88;;;4.83;62.02
55373;BME280;70018;47.838;16.490;2024-01-27T04:33:30;100546.19;;;4.79;62.55
55373;BME280;70018;47.838;16.490;2024-01-27T04:35:58;100550.84;;;4.79;62.82
55373;BME280;70018;47.838;16.490;2024-01-27T04:38:24;100548.41;;;4.77;62.42
55373;BME280;70018;47.838;16.490;2024-01-27T04:46:15;100541.59;;;4.61;62.31
55373;BME280;70018;47.838;16.490;2024-01-27T04:48:42;100547.03;;;4.61;62.87
55373;BME280;70018;47.838;16.490;2024-01-27T04:51:09;100542.44;;;4.56;62.94
55373;BME280;70018;47.838;16.490;2024-01-27T04:53:35;100542.75;;;4.55;62.88
55373;BME280;70018;47.838;16.490;2024-01-27T04:56:02;100539.66;;;4.43;63.09
55373;BME280;70018;47.838;16.490;2024-01-27T04:58:34;100548.09;;;4.41;63.26
55373;BME280;70018;47.838;16.490;2024-01-27T05:01:01;100545.91;;;4.43;62.67
55373;BME280;70018;47.838;16.490;2024-01-27T05:03:28;100546.06;;;4.33;63.21
55373;BME280;70018;47.838;16.490;2024-01-27T05:05:55;100530.72;;;4.37;63.51
55373;BME280;70018;47.838;16.490;2024-01-27T05:08:22;100540.47;;;4.43;63.36
55373;BME280;70018;47.838;16.490;2024-01-27T05:10:49;100532.28;;;4.43;62.80
55373;BME280;70018;47.838;16.490;2024-01-27T05:13:15;100540.16;;;4.45;62.94
55373;BME280;70018;47.838;16.490;2024-01-27T05:15:42;100541.78;;;4.46;62.95
55373;BME280;70018;47.838;16.490;2024-01-27T05:18:09;100528.75;;;4.43;63.15
55373;BME280;70018;47.838;16.490;2024-01-27T05:20:36;100557.84;;;4.47;63.18
55373;BME280;70018;47.838;16.490;2024-01-27T05:23:03;100540.59;;;4.52;62.62
55373;BME280;70018;47.838;16.490;2024-01-27T05:25:30;100520.69;;;4.51;62.80
55373;BME280;70018;47.838;16.490;2024-01-27T05:27:57;100533.31;;;4.47;62.95
55373;BME280;70018;47.838;16.490;2024-01-27T05:30:24;100525.19;;;4.42;62.95
55373;BME280;70018;47.838;16.490;2024-01-27T05:32:50;100524.63;;;4.45;62.75
55373;BME280;70018;47.838;16.490;2024-01-27T05:35:17;100525.19;;;4.42;63.02
55373;BME280;70018;47.838;16.490;2024-01-27T05:37:44;100550.56;;;4.43;62.81
55373;BME280;70018;47.838;16.490;2024-01-27T05:40:11;100539.91;;;4.41;63.06
55373;BME280;70018;47.838;16.490;2024-01-27T05:42:38;100527.63;;;4.44;62.67
55373;BME280;70018;47.838;16.490;2024-01-27T05:45:07;100527.16;;;4.37;63.34
55373;BME280;70018;47.838;16.490;2024-01-27T05:47:34;100546.25;;;4.37;63.51
55373;BME280;70018;47.838;16.490;2024-01-27T05:50:01;100534.91;;;4.30;63.42
55373;BME280;70018;47.838;16.490;2024-01-27T05:52:29;100536.38;;;4.22;63.42
55373;BME280;70018;47.838;16.490;2024-01-27T05:54:55;100550.50;;;4.24;62.98
55373;BME280;70018;47.838;16.490;2024-01-27T05:57:22;100550.44;;;4.29;62.41
55373;BME280;70018;47.838;16.490;2024-01-27T05:59:49;100527.47;;;4.35;61.75
55373;BME280;70018;47.838;16.490;2024-01-27T06:02:16;100536.59;;;4.26;62.13
55373;BME280;70018;47.838;16.490;2024-01-27T06:04:44;100540.94;;;4.27;62.25
55373;BME280;70018;47.838;16.490;2024-01-27T06:07:11;100556.72;;;4.30;61.95
55373;BME280;70018;47.838;16.490;2024-01-27T06:09:38;100539.28;;;4.31;61.85
55373;BME280;70018;47.838;16.490;2024-01-27T06:12:05;100537.63;;;4.30;61.96
55373;BME280;70018;47.838;16.490;2024-01-27T06:14:32;100537.94;;;4.28;61.72
55373;BME280;70018;47.838;16.490;2024-01-27T06:16:59;100532.75;;;4.27;62.22
55373;BME280;70018;47.838;16.490;2024-01-27T06:19:26;100574.09;;;4.34;61.83
55373;BME280;70018;47.838;16.490;2024-01-27T06:21:54;100541.94;;;4.36;60.87
55373;BME280;70018;47.838;16.490;2024-01-27T06:24:21;100569.66;;;4.43;61.08
55373;BME280;70018;47.838;16.490;2024-01-27T06:26:47;100569.06;;;4.46;61.22
55373;BME280;70018;47.838;16.490;2024-01-27T06:29:14;100571.88;;;4.41;61.67
55373;BME280;70018;47.838;16.490;2024-01-27T06:31:41;100583.28;;;4.43;61.56
55373;BME280;70018;47.838;16.490;2024-01-27T06:34:07;100595.16;;;4.52;61.10
55373;BME280;70018;47.838;16.490;2024-01-27T06:36:34;100558.03;;;4.56;60.90
55373;BME280;70018;47.838;16.490;2024-01-27T06:39:01;100555.81;;;4.58;61.15
55373;BME280;70018;47.838;16.490;2024-01-27T06:41:28;100568.94;;;4.56;61.20
55373;BME280;70018;47.838;16.490;2024-01-27T06:43:54;100603.41;;;4.47;61.71
55373;BME280;70018;47.838;16.490;2024-01-27T06:46:21;100600.16;;;4.45;61.99
55373;BME280;70018;47.838;16.490;2024-01-27T06:48:48;100587.63;;;4.44;61.98
55373;BME280;70018;47.838;16.490;2024-01-27T06:51:14;100598.31;;;4.40;62.18
55373;BME280;70018;47.838;16.490;2024-01-27T06:53:41;100584.63;;;4.45;61.78
55373;BME280;70018;47.838;16.490;2024-01-27T06:56:08;100583.91;;;4.59;61.01
55373;BME280;70018;47.838;16.490;2024-01-27T06:58:35;100588.53;;;4.58;60.44
55373;BME280;70018;47.838;16.490;2024-01-27T07:01:03;100608.16;;;4.60;60.08
55373;BME280;70018;47.838;16.490;2024-01-27T07:03:30;100589.94;;;4.55;60.72
55373;BME280;70018;47.838;16.490;2024-01-27T07:05:56;100611.00;;;4.50;60.82
55373;BME280;70018;47.838;16.490;2024-01-27T07:08:27;100614.75;;;4.54;60.61
55373;BME280;70018;47.838;16.490;2024-01-27T07:10:54;100617.41;;;4.59;60.39
55373;BME280;70018;47.838;16.490;2024-01-27T07:13:20;100611.19;;;4.77;60.10
55373;BME280;70018;47.838;16.490;2024-01-27T07:15:47;100605.59;;;4.87;59.81
55373;BME280;70018;47.838;16.490;2024-01-27T07:18:14;100638.84;;;4.89;59.64
55373;BME280;70018;47.838;16.490;2024-01-27T07:20:42;100614.00;;;4.91;59.93
55373;BME280;70018;47.838;16.490;2024-01-27T07:23:08;100624.69;;;4.87;60.06
55373;BME280;70018;47.838;16.490;2024-01-27T07:25:35;100620.25;;;4.91;59.52
55373;BME280;70018;47.838;16.490;2024-01-27T07:28:02;100617.44;;;4.96;59.81
55373;BME280;70018;47.838;16.490;2024-01-27T07:30:28;100638.19;;;4.97;59.75
55373;BME280;70018;47.838;16.490;2024-01-27T07:32:57;100652.88;;;5.01;59.51
55373;BME280;70018;47.838;16.490;2024-01-27T07:35:24;100630.44;;;5.04;59.64
55373;BME280;70018;47.838;16.490;2024-01-27T07:37:50;100626.03;;;5.08;58.86
55373;BME280;70018;47.838;16.490;2024-01-27T07:40:17;100630.88;;;5.11;59.51
55373;BME280;70018;47.838;16.490;2024-01-27T07:42:44;100669.34;;;5.15;59.07
55373;BME280;70018;47.838;16.490;2024-01-27T07:45:11;100654.78;;;5.19;58.93
55373;BME280;70018;47.838;16.490;2024-01-27T07:47:38;100656.44;;;5.20;58.67
55373;BME280;70018;47.838;16.490;2024-01-27T07:50:05;100646.00;;;5.22;59.57
55373;BME280;70018;47.838;16.490;2024-01-27T07:52:32;100648.16;;;5.26;59.42
55373;BME280;70018;47.838;16.490;2024-01-27T07:54:58;100642.63;;;5.31;59.49
55373;BME280;70018;47.838;16.490;2024-01-27T07:57:25;100631.63;;;5.36;59.25
55373;BME280;70018;47.838;16.490;2024-01-27T07:59:52;100655.50;;;5.44;59.80
55373;BME280;70018;47.838;16.490;2024-01-27T08:02:19;100662.00;;;5.48;59.16
55373;BME280;70018;47.838;16.490;2024-01-27T08:04:45;100663.03;;;5.52;58.89
55373;BME280;70018;47.838;16.490;2024-01-27T08:07:12;100665.69;;;5.57;58.22
55373;BME280;70018;47.838;16.490;2024-01-27T08:09:41;100665.28;;;5.63;58.85
55373;BME280;70018;47.838;16.490;2024-01-27T08:12:08;100664.09;;;5.69;58.77
55373;BME280;70018;47.838;16.490;2024-01-27T08:14:35;100672.13;;;5.79;59.43
55373;BME280;70018;47.838;16.490;2024-01-27T08:17:02;100666.84;;;5.88;59.30
55373;BME280;70018;47.838;16.490;2024-01-27T08:19:32;100670.56;;;5.92;58.55
55373;BME280;70018;47.838;16.490;2024-01-27T08:21:58;100675.97;;;5.97;57.77
55373;BME280;70018;47.838;16.490;2024-01-27T08:24:25;100693.00;;;6.08;57.98
55373;BME280;70018;47.838;16.490;2024-01-27T08:26:52;100680.03;;;6.13;58.66
55373;BME280;70018;47.838;16.490;2024-01-27T08:29:19;100689.56;;;6.16;58.39
55373;BME280;70018;47.838;16.490;2024-01-27T08:31:46;100687.53;;;6.21;57.34
55373;BME280;70018;47.838;16.490;2024-01-27T08:34:12;100689.59;;;6.29;57.11
55373;BME280;70018;47.838;16.490;2024-01-27T08:36:40;100635.88;;;6.33;57.47
55373;BME280;70018;47.838;16.490;2024-01-27T08:39:07;100679.03;;;6.36;55.91
55373;BME280;70018;47.838;16.490;2024-01-27T08:41:34;100666.41;;;6.40;55.90
55373;BME280;70018;47.838;16.490;2024-01-27T08:44:01;100691.03;;;6.40;55.14
55373;BME280;70018;47.838;16.490;2024-01-27T08:46:28;100684.22;;;6.52;55.96
55373;BME280;70018;47.838;16.490;2024-01-27T08:48:54;100695.69;;;6.67;56.04
55373;BME280;70018;47.838;16.490;2024-01-27T08:51:21;100701.56;;;6.74;54.76
55373;BME280;70018;47.838;16.490;2024-01-27T08:53:48;100695.28;;;6.74;55.08
55373;BME280;70018;47.838;16.490;2024-01-27T08:56:16;100718.00;;;6.74;54.66
55373;BME280;70018;47.838;16.490;2024-01-27T08:58:44;100703.38;;;6.79;53.86
55373;BME280;70018;47.838;16.490;2024-01-27T09:01:11;100694.25;;;6.97;54.85
55373;BME280;70018;47.838;16.490;2024-01-27T09:03:39;100712.91;;;6.95;54.49
55373;BME280;70018;47.838;16.490;2024-01-27T09:06:08;100693.25;;;6.93;53.73
55373;BME280;70018;47.838;16.490;2024-01-27T09:08:36;100682.19;;;6.98;53.75
55373;BME280;70018;47.838;16.490;2024-01-27T09:11:03;100697.97;;;7.01;54.06
55373;BME280;70018;47.838;16.490;2024-01-27T09:13:30;100688.81;;;7.19;54.18
55373;BME280;70018;47.838;16.490;2024-01-27T09:15:57;100692.75;;;7.27;53.70
55373;BME280;70018;47.838;16.490;2024-01-27T09:18:24;100695.59;;;7.35;52.65
55373;BME280;70018;47.838;16.490;2024-01-27T09:20:53;100725.91;;;7.39;53.26
55373;BME280;70018;47.838;16.490;2024-01-27T09:23:20;100701.44;;;7.42;53.49
55373;BME280;70018;47.838;16.490;2024-01-27T09:25:47;100728.84;;;7.42;52.93
55373;BME280;70018;47.838;16.490;2024-01-27T09:28:14;100720.03;;;7.45;53.83
55373;BME280;70018;47.838;16.490;2024-01-27T09:30:42;100730.94;;;7.59;53.49
55373;BME280;70018;47.838;16.490;2024-01-27T09:33:10;100736.88;;;7.74;53.51
55373;BME280;70018;47.838;16.490;2024-01-27T09:35:38;100735.59;;;7.80;52.83
55373;BME280;70018;47.838;16.490;2024-01-27T09:38:05;100723.03;;;7.79;52.40
55373;BME280;70018;47.838;16.490;2024-01-27T09:40:35;100754.56;;;7.68;51.93
55373;BME280;70018;47.838;16.490;2024-01-27T09:43:02;100723.66;;;7.76;51.50
55373;BME280;70018;47.838;16.490;2024-01-27T09:45:29;100745.09;;;7.74;51.56
55373;BME280;70018;47.838;16.490;2024-01-27T09:47:57;100734.25;;;7.69;52.24
55373;BME280;70018;47.838;16.490;2024-01-27T09:50:25;100752.59;;;7.83;51.77
55373;BME280;70018;47.838;16.490;2024-01-27T09:52:52;100749.19;;;7.86;51.82
55373;BME280;70018;47.838;16.490;2024-01-27T09:55:19;100751.81;;;7.91;53.24
55373;BME280;70018;47.838;16.490;2024-01-27T09:57:46;100754.44;;;7.96;51.76
55373;BME280;70018;47.838;16.490;2024-01-27T10:00:14;100756.81;;;8.11;50.36
55373;BME280;70018;47.838;16.490;2024-01-27T10:02:45;100748.56;;;8.11;52.29
55373;BME280;70018;47.838;16.490;2024-01-27T10:05:13;100785.50;;;8.05;51.65
55373;BME280;70018;47.838;16.490;2024-01-27T10:07:41;100764.34;;;8.05;51.20
55373;BME280;70018;47.838;16.490;2024-01-27T10:10:09;100779.38;;;8.08;52.65
55373;BME280;70018;47.838;16.490;2024-01-27T10:12:42;100788.25;;;8.05;51.44
55373;BME280;70018;47.838;16.490;2024-01-27T10:15:22;100782.38;;;8.20;50.77
55373;BME280;70018;47.838;16.490;2024-01-27T10:17:49;100784.50;;;8.45;51.40
55373;BME280;70018;47.838;16.490;2024-01-27T10:20:17;100781.00;;;8.53;49.86
55373;BME280;70018;47.838;16.490;2024-01-27T10:22:46;100769.38;;;8.56;51.20
55373;BME280;70018;47.838;16.490;2024-01-27T10:25:12;100771.19;;;8.61;48.86
55373;BME280;70018;47.838;16.490;2024-01-27T10:27:41;100770.56;;;8.64;48.44
55373;BME280;70018;47.838;16.490;2024-01-27T10:30:17;100761.50;;;8.63;47.15
55373;BME280;70018;47.838;16.490;2024-01-27T10:32:55;100756.06;;;8.41;46.35
55373;BME280;70018;47.838;16.490;2024-01-27T10:35:24;100766.06;;;8.37;47.33
55373;BME280;70018;47.838;16.490;2024-01-27T10:37:54;100744.38;;;8.27;46.72
55373;BME280;70018;47.838;16.490;2024-01-27T10:40:25;100749.88;;;8.35;46.51
55373;BME280;70018;47.838;16.490;2024-01-27T10:43:03;100745.63;;;8.52;46.82
55373;BME280;70018;47.838;16.490;2024-01-27T10:45:41;100736.09;;;8.49;45.41
55373;BME280;70018;47.838;16.490;2024-01-27T10:48:09;100746.78;;;8.59;46.06
55373;BME280;70018;47.838;16.490;2024-01-27T10:50:39;100752.06;;;8.86;45.21
55373;BME280;70018;47.838;16.490;2024-01-27T10:53:23;100736.50;;;8.73;44.97
55373;BME280;70018;47.838;16.490;2024-01-27T10:55:57;100762.38;;;8.72;46.18
55373;BME280;70018;47.838;16.490;2024-01-27T10:58:26;100755.19;;;8.63;43.85
55373;BME280;70018;47.838;16.490;2024-01-27T11:00:53;100754.00;;;8.47;46.01
55373;BME280;70018;47.838;16.490;2024-01-27T11:03:22;100759.25;;;8.65;45.86
55373;BME280;70018;47.838;16.490;2024-01-27T11:05:51;100767.31;;;8.62;44.24
55373;BME280;70018;47.838;16.490;2024-01-27T11:08:19;100768.44;;;8.61;46.35
55373;BME280;70018;47.838;16.490;2024-01-27T11:10:46;100747.41;;;8.56;46.37
55373;BME280;70018;47.838;16.490;2024-01-27T11:13:13;100733.41;;;8.66;46.46
55373;BME280;70018;47.838;16.490;2024-01-27T11:15:51;100729.03;;;8.57;45.68
55373;BME280;70018;47.838;16.490;2024-01-27T11:18:17;100718.38;;;8.64;46.77
55373;BME280;70018;47.838;16.490;2024-01-27T11:20:45;100745.91;;;8.41;46.36
55373;BME280;70018;47.838;16.490;2024-01-27T11:23:12;100718.38;;;8.33;45.89
55373;BME280;70018;47.838;16.490;2024-01-27T11:25:42;100725.03;;;8.32;46.52
55373;BME280;70018;47.838;16.490;2024-01-27T11:28:13;100740.47;;;8.28;46.65
55373;BME280;70018;47.838;16.490;2024-01-27T11:30:49;100714.41;;;8.17;45.67
55373;BME280;70018;47.838;16.490;2024-01-27T11:33:17;100711.94;;;8.29;47.01
55373;BME280;70018;47.838;16.490;2024-01-27T11:35:44;100716.66;;;8.37;47.39
55373;BME280;70018;47.838;16.490;2024-01-27T11:38:10;100719.41;;;8.37;47.62
55373;BME280;70018;47.838;16.490;2024-01-27T11:40:46;100723.31;;;8.45;47.26
55373;BME280;70018;47.838;16.490;2024-01-27T11:43:13;100707.00;;;8.48;46.83
55373;BME280;70018;47.838;16.490;2024-01-27T11:45:40;100729.38;;;8.33;46.43
55373;BME280;70018;47.838;16.490;2024-01-27T11:48:07;100712.41;;;8.31;45.61
55373;BME280;70018;47.838;16.490;2024-01-27T11:50:34;100704.66;;;8.33;46.39
55373;BME280;70018;47.838;16.490;2024-01-27T11:53:01;100716.19;;;8.43;46.40
55373;BME280;70018;47.838;16.490;2024-01-27T11:55:28;100712.41;;;8.62;46.91
55373;BME280;70018;47.838;16.490;2024-01-27T11:57:55;100707.19;;;8.52;46.15
55373;BME280;70018;47.838;16.490;2024-01-27T12:00:21;100701.31;;;8.36;45.89
55373;BME280;70018;47.838;16.490;2024-01-27T12:02:51;100727.38;;;8.25;45.72
55373;BME280;70018;47.838;16.490;2024-01-27T12:05:18;100710.84;;;8.16;46.35
55373;BME280;70018;47.838;16.490;2024-01-27T12:07:45;100694.97;;;8.27;46.61
55373;BME280;70018;47.838;16.490;2024-01-27T12:10:12;100713.41;;;8.35;46.58
55373;BME280;70018;47.838;16.490;2024-01-27T12:12:39;100694.97;;;8.27;45.58
55373;BME280;70018;47.838;16.490;2024-01-27T12:15:06;100725.25;;;8.22;46.17
55373;BME280;70018;47.838;16.490;2024-01-27T12:17:33;100717.09;;;8.30;45.41
55373;BME280;70018;47.838;16.490;2024-01-27T12:20:00;100726.00;;;8.36;45.48
55373;BME280;70018;47.838;16.490;2024-01-27T12:22:29;100730.59;;;8.49;45.22
55373;BME280;70018;47.838;16.490;2024-01-27T12:25:08;100704.03;;;8.36;44.84
55373;BME280;70018;47.838;16.490;2024-01-27T12:27:36;100723.88;;;8.33;45.63
55373;BME280;70018;47.838;16.490;2024-01-27T12:30:03;100710.22;;;8.41;45.85
55373;BME280;70018;47.838;16.490;2024-01-27T12:32:31;100713.13;;;8.45;44.82
55373;BME280;70018;47.838;16.490;2024-01-27T12:34:58;100715.50;;;8.38;44.69
55373;BME280;70018;47.838;16.490;2024-01-27T12:37:28;100726.50;;;8.38;44.69
55373;BME280;70018;47.838;16.490;2024-01-27T12:39:54;100724.25;;;8.40;45.61
55373;BME280;70018;47.838;16.490;2024-01-27T12:42:21;100735.41;;;8.43;45.13
55373;BME280;70018;47.838;16.490;2024-01-27T12:44:48;100701.97;;;8.41;44.67
55373;BME280;70018;47.838;16.490;2024-01-27T12:47:15;100752.22;;;8.42;44.80
55373;BME280;70018;47.838;16.490;2024-01-27T12:49:42;100727.44;;;8.33;44.79
55373;BME280;70018;47.838;16.490;2024-01-27T12:52:09;100712.47;;;8.39;45.43
55373;BME280;70018;47.838;16.490;2024-01-27T12:54:35;100722.16;;;8.37;44.11
55373;BME280;70018;47.838;16.490;2024-01-27T12:57:02;100715.38;;;8.43;45.06
55373;BME280;70018;47.838;16.490;2024-01-27T12:59:29;100716.72;;;8.54;42.96
55373;BME280;70018;47.838;16.490;2024-01-27T13:01:56;100712.22;;;8.58;44.42
55373;BME280;70018;47.838;16.490;2024-01-27T13:04:23;100723.00;;;8.46;43.53
55373;BME280;70018;47.838;16.490;2024-01-27T13:06:52;100720.59;;;8.53;45.20
55373;BME280;70018;47.838;16.490;2024-01-27T13:09:19;100714.75;;;8.46;44.34
55373;BME280;70018;47.838;16.490;2024-01-27T13:11:46;100740.31;;;8.55;44.03
55373;BME280;70018;47.838;16.490;2024-01-27T13:14:14;100731.22;;;8.46;44.15
55373;BME280;70018;47.838;16.490;2024-01-27T13:16:42;100719.78;;;8.53;44.66
55373;BME280;70018;47.838;16.490;2024-01-27T13:19:09;100728.06;;;8.61;44.19
55373;BME280;70018;47.838;16.490;2024-01-27T13:21:36;100723.69;;;8.60;44.92
55373;BME280;70018;47.838;16.490;2024-01-27T13:24:03;100723.06;;;8.63;44.41
55373;BME280;70018;47.838;16.490;2024-01-27T13:26:30;100716.47;;;8.64;44.85
55373;BME280;70018;47.838;16.490;2024-01-27T13:28:58;100723.69;;;8.60;44.66
55373;BME280;70018;47.838;16.490;2024-01-27T13:31:25;100738.69;;;8.54;44.81
55373;BME280;70018;47.838;16.490;2024-01-27T13:33:52;100732.59;;;8.57;45.03
55373;BME280;70018;47.838;16.490;2024-01-27T13:36:19;100736.09;;;8.49;44.42
55373;BME280;70018;47.838;16.490;2024-01-27T13:38:46;100744.00;;;8.51;45.06
55373;BME280;70018;47.838;16.490;2024-01-27T13:41:13;100745.44;;;8.48;45.74
55373;BME280;70018;47.838;16.490;2024-01-27T13:43:39;100756.13;;;8.50;45.22
55373;BME280;70018;47.838;16.490;2024-01-27T13:46:06;100769.66;;;8.46;45.00
55373;BME280;70018;47.838;16.490;2024-01-27T13:48:33;100763.81;;;8.39;45.40
55373;BME280;70018;47.838;16.490;2024-01-27T13:51:00;100775.59;;;8.39;45.71
55373;BME280;70018;47.838;16.490;2024-01-27T13:53:27;100773.47;;;8.36;44.29
55373;BME280;70018;47.838;16.490;2024-01-27T13:56:11;100771.06;;;8.35;45.07
55373;BME280;70018;47.838;16.490;2024-01-27T13:58:38;100774.44;;;8.18;44.45
55373;BME280;70018;47.838;16.490;2024-01-27T14:01:05;100769.06;;;8.27;44.75
55373;BME280;70018;47.838;16.490;2024-01-27T14:03:32;100768.03;;;8.23;44.48
55373;BME280;70018;47.838;16.490;2024-01-27T14:05:59;100786.38;;;8.14;44.80
55373;BME280;70018;47.838;16.490;2024-01-27T14:08:26;100784.88;;;8.08;44.78
55373;BME280;70018;47.838;16.490;2024-01-27T14:10:53;100798.56;;;8.08;44.73
55373;BME280;70018;47.838;16.490;2024-01-27T14:13:20;100802.47;;;8.07;45.41
55373;BME280;70018;47.838;16.490;2024-01-27T14:15:46;100805.31;;;8.02;45.97
55373;BME280;70018;47.838;16.490;2024-01-27T14:18:13;100792.84;;;7.96;45.42
55373;BME280;70018;47.838;16.490;2024-01-27T14:20:48;100803.44;;;7.89;46.07
55373;BME280;70018;47.838;16.490;2024-01-27T14:23:15;100809.03;;;7.84;45.34
55373;BME280;70018;47.838;16.490;2024-01-27T14:25:42;100813.03;;;7.77;45.42
55373;BME280;70018;47.838;16.490;2024-01-27T14:28:13;100807.03;;;7.75;46.03
55373;BME280;70018;47.838;16.490;2024-01-27T14:30:40;100820.34;;;7.68;45.70
55373;BME280;70018;47.838;16.490;2024-01-27T14:33:08;100819.97;;;7.61;45.79
55373;BME280;70018;47.838;16.490;2024-01-27T14:35:35;100832.97;;;7.56;45.82
55373;BME280;70018;47.838;16.490;2024-01-27T14:38:03;100831.47;;;7.50;46.37
55373;BME280;70018;47.838;16.490;2024-01-27T14:40:31;100829.34;;;7.47;46.53